Time;durP1;ratioP1;P1;durP2;ratioP2;P2;SDS_P1;SDS_P2;PMS_P1;PMS_P2;Temp;Humidity;BMP_temperature;BMP_pressure;BME280_temperature;BME280_humidity;BME280_pressure;Samples;Min_cycle;Max_cycle;Signal;HPM_P1;HPM_P2
2021/04/03 00:01:15;;;;;;;2.45;0.95;;;7.90;99.90;;;;;;5094864;28;20180;-74
2021/04/03 00:03:40;;;;;;;1.05;0.82;;;7.90;99.90;;;;;;5095679;28;20164;-74
2021/04/03 00:06:06;;;;;;;3.90;2.28;;;7.80;99.90;;;;;;5095082;28;20190;-76
2021/04/03 00:08:32;;;;;;;2.83;1.08;;;7.80;99.90;;;;;;5095082;28;20248;-77
2021/04/03 00:11:04;;;;;;;0.50;0.50;;;7.80;99.90;;;;;;5093901;28;20177;-76
2021/04/03 00:13:32;;;;;;;0.45;0.45;;;7.70;99.90;;;;;;5093925;28;20252;-76
2021/04/03 00:15:58;;;;;;;0.88;0.88;;;7.80;99.90;;;;;;5094788;28;20551;-75
2021/04/03 00:18:24;;;;;;;0.30;0.30;;;7.80;99.90;;;;;;5094923;28;20629;-76
2021/04/03 00:20:49;;;;;;;0.93;0.80;;;7.70;99.90;;;;;;5094384;28;20583;-75
2021/04/03 00:23:18;;;;;;;0.38;0.38;;;7.80;99.90;;;;;;5093167;28;20188;-75
2021/04/03 00:25:43;;;;;;;0.20;0.20;;;7.90;99.90;;;;;;5092379;28;20286;-75
2021/04/03 00:28:09;;;;;;;0.32;0.32;;;7.90;99.90;;;;;;5093872;28;20162;-76
2021/04/03 00:30:34;;;;;;;0.90;0.90;;;8.00;99.90;;;;;;5093751;28;20166;-76
2021/04/03 00:33:02;;;;;;;0.73;0.73;;;8.00;99.90;;;;;;5095742;28;20150;-75
2021/04/03 00:35:30;;;;;;;4.85;1.30;;;8.10;99.90;;;;;;5095791;28;20234;-75
2021/04/03 00:37:57;;;;;;;0.47;0.47;;;8.10;99.90;;;;;;5093544;28;20601;-75
2021/04/03 00:40:29;;;;;;;1.33;0.95;;;8.10;99.90;;;;;;5093674;28;20206;-76
2021/04/03 00:42:59;;;;;;;0.50;0.50;;;8.00;99.90;;;;;;5093700;28;20557;-76
2021/04/03 00:45:24;;;;;;;0.25;0.22;;;7.90;99.90;;;;;;5093550;28;20216;-76
2021/04/03 00:47:51;;;;;;;0.57;0.57;;;7.80;99.90;;;;;;5093537;28;20161;-74
2021/04/03 00:50:39;;;;;;;2.63;1.38;;;7.60;99.90;;;;;;5092370;28;20197;-75
2021/04/03 00:53:06;;;;;;;0.22;0.22;;;7.60;99.90;;;;;;5094910;28;20150;-74
2021/04/03 00:55:32;;;;;;;0.20;0.20;;;7.80;99.90;;;;;;5095674;28;20664;-74
2021/04/03 00:57:59;;;;;;;0.20;0.20;;;8.00;99.90;;;;;;5096341;28;20170;-75
2021/04/03 01:00:25;;;;;;;6.88;0.68;;;7.90;99.90;;;;;;5093833;28;20164;-74
2021/04/03 01:02:50;;;;;;;0.47;0.47;;;7.90;99.90;;;;;;5092239;28;20296;-74
2021/04/03 01:05:19;;;;;;;0.30;0.30;;;8.10;99.90;;;;;;5093212;28;20624;-74
2021/04/03 01:07:44;;;;;;;12.57;1.25;;;8.00;99.90;;;;;;5093350;28;20173;-75
2021/04/03 01:10:14;;;;;;;0.20;0.20;;;7.90;99.90;;;;;;5092216;28;20174;-74
2021/04/03 01:13:15;;;;;;;1.95;0.75;;;7.90;99.90;;;;;;5091948;28;20162;-76
2021/04/03 01:16:09;;;;;;;0.65;0.65;;;7.90;99.90;;;;;;5091996;28;20202;-75
2021/04/03 01:18:35;;;;;;;0.40;0.40;;;7.80;99.90;;;;;;5091897;28;20166;-75
2021/04/03 01:21:02;;;;;;;0.38;0.38;;;7.60;99.90;;;;;;5093883;28;20510;-76
2021/04/03 01:23:40;;;;;;;1.45;1.35;;;7.50;99.90;;;;;;5093448;28;20169;-75
2021/04/03 01:26:54;;;;;;;0.98;0.98;;;7.50;99.90;;;;;;5093297;28;20221;-74
2021/04/03 01:29:29;;;;;;;4.55;1.55;;;7.50;99.90;;;;;;5093345;28;20188;-74
2021/04/03 01:31:57;;;;;;;0.85;0.85;;;7.70;99.90;;;;;;5093355;28;20687;-74
2021/04/03 01:34:26;;;;;;;0.52;0.52;;;7.80;99.90;;;;;;5093239;28;20245;-75
2021/04/03 01:36:58;;;;;;;0.47;0.32;;;8.20;99.90;;;;;;5096103;28;20717;-76
2021/04/03 01:39:26;;;;;;;1.10;1.10;;;8.10;99.90;;;;;;5097494;28;20194;-75
2021/04/03 01:41:56;;;;;;;0.88;0.85;;;8.20;99.90;;;;;;5097900;28;20192;-75
2021/04/03 01:44:26;;;;;;;0.30;0.30;;;8.10;99.90;;;;;;5097661;28;20201;-75
2021/04/03 01:46:53;;;;;;;4.82;0.60;;;7.90;99.90;;;;;;5097791;28;20185;-75
2021/04/03 01:49:22;;;;;;;0.30;0.30;;;7.90;99.90;;;;;;5097699;28;20684;-75
2021/04/03 01:51:49;;;;;;;1.00;1.00;;;8.10;99.90;;;;;;5097654;28;20642;-76
2021/04/03 01:54:17;;;;;;;0.60;0.60;;;8.10;99.90;;;;;;5097571;28;20201;-76
2021/04/03 01:56:46;;;;;;;0.20;0.20;;;8.10;99.90;;;;;;5097350;28;20213;-76
2021/04/03 01:59:14;;;;;;;3.30;0.90;;;8.10;99.90;;;;;;5097554;28;20252;-75
2021/04/03 02:01:44;;;;;;;1.73;0.30;;;7.90;99.90;;;;;;5097401;28;20545;-76
2021/04/03 02:04:13;;;;;;;11.95;2.55;;;7.60;99.90;;;;;;5096655;28;20205;-77
2021/04/03 02:06:42;;;;;;;0.60;0.60;;;7.50;99.90;;;;;;5096515;28;20189;-75
2021/04/03 02:09:10;;;;;;;0.22;0.22;;;7.50;99.90;;;;;;5096608;28;20193;-76
2021/04/03 02:11:39;;;;;;;0.50;0.50;;;7.50;99.90;;;;;;5096471;28;20234;-75
2021/04/03 02:14:06;;;;;;;2.25;1.92;;;7.60;99.90;;;;;;5096531;28;20162;-75
2021/04/03 02:16:39;;;;;;;0.13;0.13;;;7.70;99.90;;;;;;5096508;28;20184;-76
2021/04/03 02:19:06;;;;;;;0.93;0.45;;;7.80;99.90;;;;;;5096377;28;20640;-76
2021/04/03 02:21:34;;;;;;;0.52;0.52;;;7.90;99.90;;;;;;5096432;28;20184;-77
2021/04/03 02:24:00;;;;;;;0.20;0.20;;;7.60;99.90;;;;;;5096019;28;20205;-74
2021/04/03 02:26:30;;;;;;;0.22;0.22;;;7.70;99.90;;;;;;5096246;28;20731;-75
2021/04/03 02:28:56;;;;;;;4.40;1.65;;;7.70;99.90;;;;;;5096184;28;20158;-75
2021/04/03 02:31:21;;;;;;;0.10;0.10;;;7.90;99.90;;;;;;5096146;28;20196;-75
2021/04/03 02:33:47;;;;;;;11.90;1.65;;;7.90;99.90;;;;;;5096040;28;20162;-75
2021/04/03 02:36:12;;;;;;;1.08;1.08;;;7.90;99.90;;;;;;5096371;28;20231;-75
2021/04/03 02:38:38;;;;;;;0.20;0.20;;;7.90;99.90;;;;;;5094696;28;20189;-77
2021/04/03 02:41:05;;;;;;;0.30;0.30;;;7.90;99.90;;;;;;5095846;28;20254;-77
2021/04/03 02:43:40;;;;;;;3.67;1.48;;;7.80;99.90;;;;;;5096287;28;20156;-76
2021/04/03 02:46:39;;;;;;;0.20;0.20;;;7.80;99.90;;;;;;5094443;28;20244;-77
2021/04/03 02:49:13;;;;;;;0.38;0.38;;;7.80;99.90;;;;;;5087686;28;20269;-75
2021/04/03 02:51:43;;;;;;;2.08;1.65;;;7.90;99.90;;;;;;5096452;28;20218;-76
2021/04/03 02:54:10;;;;;;;1.85;0.70;;;7.80;99.90;;;;;;5096429;28;20174;-76
2021/04/03 02:56:42;;;;;;;2.40;1.50;;;7.80;99.90;;;;;;5095943;28;20182;-77
2021/04/03 02:59:15;;;;;;;2.50;0.90;;;7.80;99.90;;;;;;5096200;28;20168;-77
2021/04/03 03:01:41;;;;;;;0.20;0.20;;;7.80;99.90;;;;;;5096625;28;20166;-78
2021/04/03 03:04:10;;;;;;;0.20;0.20;;;7.80;99.90;;;;;;5095024;28;20198;-77
2021/04/03 03:06:37;;;;;;;9.45;1.02;;;7.80;99.90;;;;;;5096193;28;20543;-77
2021/04/03 03:09:04;;;;;;;1.10;1.08;;;7.70;99.90;;;;;;5095327;28;20166;-77
2021/04/03 03:11:30;;;;;;;0.73;0.73;;;7.70;99.90;;;;;;5096447;28;20166;-76
2021/04/03 03:13:59;;;;;;;0.60;0.60;;;7.50;99.90;;;;;;5095762;28;20146;-75
2021/04/03 03:16:26;;;;;;;0.10;0.10;;;7.50;99.90;;;;;;5095968;28;20239;-76
2021/04/03 03:18:52;;;;;;;19.75;0.88;;;7.60;99.90;;;;;;5094727;28;20620;-77
2021/04/03 03:21:18;;;;;;;1.20;1.10;;;7.70;99.90;;;;;;5096392;28;20166;-78
2021/04/03 03:23:44;;;;;;;0.73;0.73;;;7.60;99.90;;;;;;5095471;28;20287;-77
2021/04/03 03:26:09;;;;;;;0.10;0.10;;;7.50;99.90;;;;;;5095617;28;20225;-74
2021/04/03 03:28:37;;;;;;;0.55;0.55;;;7.50;99.90;;;;;;5095963;28;20193;-74
2021/04/03 03:31:03;;;;;;;0.43;0.43;;;7.40;99.90;;;;;;5096366;28;20246;-74
2021/04/03 03:33:28;;;;;;;0.60;0.60;;;7.40;99.90;;;;;;5098712;28;20188;-73
2021/04/03 03:35:57;;;;;;;0.90;0.90;;;7.50;99.90;;;;;;5098811;28;20196;-74
2021/04/03 03:38:23;;;;;;;1.88;0.60;;;7.50;99.90;;;;;;5096305;28;20165;-75
2021/04/03 03:40:50;;;;;;;0.45;0.40;;;7.50;99.90;;;;;;5095159;28;20643;-74
2021/04/03 03:43:17;;;;;;;0.70;0.70;;;7.50;99.90;;;;;;5095083;28;20157;-74
2021/04/03 03:45:44;;;;;;;0.20;0.20;;;7.50;99.90;;;;;;5094971;28;20203;-75
2021/04/03 03:48:10;;;;;;;0.40;0.40;;;7.50;99.90;;;;;;5094876;28;20158;-75
2021/04/03 03:50:35;;;;;;;0.40;0.40;;;7.50;99.90;;;;;;5095117;28;20162;-75
2021/04/03 03:53:01;;;;;;;0.22;0.22;;;7.50;99.90;;;;;;5095157;28;20161;-76
2021/04/03 03:55:27;;;;;;;0.60;0.60;;;7.50;99.90;;;;;;5094935;28;20555;-75
2021/04/03 03:57:52;;;;;;;6.22;0.75;;;7.40;99.90;;;;;;5094373;28;20166;-75
2021/04/03 04:00:18;;;;;;;1.15;1.08;;;7.50;99.90;;;;;;5094457;28;20626;-75
2021/04/03 04:02:44;;;;;;;0.55;0.55;;;7.50;99.90;;;;;;5094630;28;20215;-75
2021/04/03 04:05:10;;;;;;;0.17;0.17;;;7.60;99.90;;;;;;5094510;28;20205;-75
2021/04/03 04:07:36;;;;;;;0.20;0.20;;;7.80;99.90;;;;;;5093392;28;20174;-74
2021/04/03 04:10:07;;;;;;;0.43;0.43;;;7.80;99.90;;;;;;5095028;28;20526;-74
2021/04/03 04:12:32;;;;;;;0.30;0.30;;;7.60;99.90;;;;;;5094700;28;20162;-75
2021/04/03 04:14:58;;;;;;;5.82;0.85;;;7.60;99.90;;;;;;5096027;28;20165;-74
2021/04/03 04:17:24;;;;;;;0.20;0.20;;;7.60;99.90;;;;;;5095704;28;20190;-74
2021/04/03 04:19:49;;;;;;;0.57;0.57;;;7.80;99.90;;;;;;5094494;28;20157;-74
2021/04/03 04:22:15;;;;;;;5.75;1.05;;;7.80;99.90;;;;;;5095397;28;20166;-75
2021/04/03 04:24:40;;;;;;;9.20;2.17;;;7.70;99.90;;;;;;5095027;28;20564;-74
2021/04/03 04:27:06;;;;;;;12.65;1.52;;;7.70;99.90;;;;;;5094901;28;20621;-74
2021/04/03 04:29:32;;;;;;;0.88;0.88;;;7.90;99.90;;;;;;5093594;28;20177;-75
2021/04/03 04:32:00;;;;;;;2.53;0.80;;;7.90;99.90;;;;;;5093336;28;20616;-75
2021/04/03 04:34:26;;;;;;;0.25;0.25;;;7.70;99.90;;;;;;5095800;28;20215;-75
2021/04/03 04:36:51;;;;;;;4.22;2.58;;;7.70;99.90;;;;;;5095486;28;20578;-74
2021/04/03 04:39:17;;;;;;;0.20;0.20;;;7.70;99.90;;;;;;5093870;28;20177;-76
2021/04/03 04:41:42;;;;;;;0.30;0.30;;;7.60;99.90;;;;;;5092530;28;20549;-74
2021/04/03 04:44:08;;;;;;;0.98;0.90;;;7.90;99.90;;;;;;5093682;28;20607;-75
2021/04/03 04:46:33;;;;;;;0.40;0.40;;;8.00;99.90;;;;;;5094264;28;20209;-74
2021/04/03 04:48:59;;;;;;;0.95;0.90;;;8.00;99.90;;;;;;5094421;28;20158;-74
2021/04/03 04:51:25;;;;;;;0.77;0.77;;;8.10;99.90;;;;;;5094287;28;20526;-75
2021/04/03 04:53:50;;;;;;;7.55;0.90;;;8.10;99.90;;;;;;5094743;28;20211;-77
2021/04/03 04:56:16;;;;;;;0.70;0.70;;;7.90;99.90;;;;;;5094217;28;20193;-76
2021/04/03 04:58:42;;;;;;;0.88;0.88;;;8.10;99.90;;;;;;5094293;28;20181;-76
2021/04/03 05:01:07;;;;;;;0.47;0.47;;;8.20;99.90;;;;;;5094006;28;20314;-78
2021/04/03 05:03:33;;;;;;;24.65;1.10;;;8.30;99.90;;;;;;5093862;28;20165;-77
2021/04/03 05:05:58;;;;;;;5.40;1.33;;;8.30;99.90;;;;;;5094306;28;20700;-77
2021/04/03 05:08:24;;;;;;;0.45;0.45;;;8.30;99.90;;;;;;5094117;28;20502;-75
2021/04/03 05:10:49;;;;;;;5.38;2.00;;;8.30;99.90;;;;;;5093956;28;20244;-75
2021/04/03 05:13:15;;;;;;;5.82;2.05;;;8.10;99.90;;;;;;5093886;28;20250;-75
2021/04/03 05:15:41;;;;;;;0.20;0.20;;;7.80;99.90;;;;;;5091872;28;20597;-77
2021/04/03 05:18:06;;;;;;;0.20;0.20;;;7.60;99.90;;;;;;5094111;28;20166;-75
2021/04/03 05:20:32;;;;;;;1.85;1.75;;;7.60;99.90;;;;;;5094204;28;20165;-74
2021/04/03 05:22:57;;;;;;;8.15;2.58;;;7.50;99.90;;;;;;5095212;28;20165;-75
2021/04/03 05:25:23;;;;;;;0.17;0.17;;;7.50;99.90;;;;;;5093662;28;20230;-75
2021/04/03 05:27:49;;;;;;;2.00;1.02;;;7.50;99.90;;;;;;5093812;28;20203;-75
2021/04/03 05:30:15;;;;;;;0.20;0.20;;;7.50;99.90;;;;;;5093372;28;20227;-74
2021/04/03 05:32:40;;;;;;;0.17;0.17;;;7.40;99.90;;;;;;5093559;28;20172;-76
2021/04/03 05:35:06;;;;;;;0.30;0.30;;;7.50;99.90;;;;;;5093488;28;20169;-77
2021/04/03 05:37:32;;;;;;;3.33;1.55;;;7.50;99.90;;;;;;5094144;28;20166;-76
2021/04/03 05:39:58;;;;;;;0.22;0.22;;;7.40;99.90;;;;;;5093236;28;20158;-77
2021/04/03 05:42:32;;;;;;;5.18;0.52;;;7.70;99.90;;;;;;5093677;28;20361;-78
2021/04/03 05:45:00;;;;;;;0.65;0.65;;;7.70;99.90;;;;;;5093228;28;20211;-76
2021/04/03 05:47:26;;;;;;;0.25;0.25;;;7.70;99.90;;;;;;5093425;28;20159;-78
2021/04/03 05:49:52;;;;;;;0.77;0.77;;;7.70;99.90;;;;;;5094100;28;20158;-77
2021/04/03 05:52:18;;;;;;;0.13;0.13;;;7.70;99.90;;;;;;5092293;28;20173;-77
2021/04/03 05:54:43;;;;;;;0.40;0.40;;;7.70;99.90;;;;;;5094519;28;20169;-77
2021/04/03 05:57:09;;;;;;;1.25;1.25;;;7.70;99.90;;;;;;5097804;28;20592;-77
2021/04/03 05:59:35;;;;;;;0.45;0.45;;;7.60;99.90;;;;;;5100038;28;20531;-77
2021/04/03 06:02:04;;;;;;;19.20;1.80;;;7.50;99.90;;;;;;5100425;28;20165;-78
2021/04/03 06:04:29;;;;;;;0.38;0.38;;;7.60;99.90;;;;;;5100996;28;20193;-78
2021/04/03 06:06:55;;;;;;;0.50;0.50;;;7.80;99.90;;;;;;5098317;28;20239;-76
2021/04/03 06:09:21;;;;;;;1.08;0.38;;;7.60;99.90;;;;;;5088727;28;20174;-75
2021/04/03 06:11:48;;;;;;;0.20;0.20;;;7.80;99.90;;;;;;5090546;28;20170;-75
2021/04/03 06:14:16;;;;;;;0.22;0.22;;;8.00;99.90;;;;;;5095865;28;20193;-77
2021/04/03 06:16:50;;;;;;;0.10;0.10;;;7.70;99.90;;;;;;5095963;28;20178;-76
2021/04/03 06:19:20;;;;;;;2.15;1.95;;;7.80;99.90;;;;;;5088699;28;20175;-76
2021/04/03 06:21:45;;;;;;;0.55;0.55;;;7.90;99.90;;;;;;5073019;28;20557;-76
2021/04/03 06:24:26;;;;;;;1.30;0.95;;;7.90;99.90;;;;;;5074999;28;20302;-76
2021/04/03 06:26:56;;;;;;;3.72;1.30;;;8.10;99.90;;;;;;5076341;28;20194;-77
2021/04/03 06:29:26;;;;;;;0.40;0.40;;;8.10;99.90;;;;;;5075753;28;20687;-77
2021/04/03 06:31:53;;;;;;;2.45;2.25;;;8.30;99.90;;;;;;5075515;28;20689;-76
2021/04/03 06:34:36;;;;;;;10.23;1.40;;;8.40;99.90;;;;;;5075862;28;20247;-76
2021/04/03 06:37:04;;;;;;;1.80;0.98;;;8.50;99.90;;;;;;5075618;28;20205;-73
2021/04/03 06:39:29;;;;;;;10.80;0.40;;;8.30;99.90;;;;;;5075556;28;20519;-72
2021/04/03 06:41:56;;;;;;;13.80;0.65;;;8.20;99.90;;;;;;5075723;28;20173;-76
2021/04/03 06:44:22;;;;;;;0.30;0.30;;;8.30;99.90;;;;;;5075780;28;20197;-76
2021/04/03 06:46:49;;;;;;;0.30;0.30;;;8.30;99.90;;;;;;5074456;28;20190;-76
2021/04/03 06:49:15;;;;;;;0.22;0.22;;;8.30;99.90;;;;;;5075445;28;20174;-75
2021/04/03 06:51:42;;;;;;;0.22;0.22;;;8.30;99.90;;;;;;5075488;28;20174;-76
2021/04/03 06:54:09;;;;;;;0.57;0.57;;;8.40;99.90;;;;;;5075457;28;20170;-76
2021/04/03 06:56:36;;;;;;;6.93;1.27;;;8.50;99.90;;;;;;5075609;28;20536;-77
2021/04/03 06:59:13;;;;;;;0.20;0.20;;;8.70;99.90;;;;;;5075126;28;20166;-73
2021/04/03 07:01:46;;;;;;;1.73;1.10;;;8.90;99.90;;;;;;5073870;28;20170;-73
2021/04/03 07:04:39;;;;;;;0.50;0.50;;;9.10;99.90;;;;;;5074896;28;20194;-76
2021/04/03 07:07:07;;;;;;;0.25;0.25;;;9.10;99.90;;;;;;5075003;28;20213;-76
2021/04/03 07:09:34;;;;;;;1.45;0.65;;;8.90;99.90;;;;;;5075066;28;20673;-76
2021/04/03 07:12:00;;;;;;;0.15;0.15;;;8.80;99.90;;;;;;5075189;28;20167;-74
2021/04/03 07:14:29;;;;;;;0.30;0.30;;;8.90;99.90;;;;;;5075011;28;20222;-75
2021/04/03 07:16:55;;;;;;;0.40;0.40;;;8.90;99.90;;;;;;5075415;28;20675;-75
2021/04/03 07:19:22;;;;;;;0.20;0.20;;;8.80;99.90;;;;;;5074632;28;20249;-74
2021/04/03 07:21:48;;;;;;;0.55;0.55;;;8.90;99.90;;;;;;5073673;28;20613;-77
2021/04/03 07:24:16;;;;;;;1.95;1.85;;;9.20;99.90;;;;;;5074519;28;20272;-78
2021/04/03 07:26:45;;;;;;;0.47;0.47;;;9.10;99.90;;;;;;5074708;28;20194;-78
2021/04/03 07:29:39;;;;;;;2.45;0.77;;;9.10;99.90;;;;;;5074843;28;20162;-75
2021/04/03 07:32:05;;;;;;;3.80;1.77;;;9.30;99.90;;;;;;5074509;28;20166;-72
2021/04/03 07:34:43;;;;;;;3.53;2.13;;;9.20;99.90;;;;;;5085926;28;20178;-75
2021/04/03 07:37:09;;;;;;;4.25;1.58;;;9.10;99.90;;;;;;5094831;28;20209;-76
2021/04/03 07:39:37;;;;;;;5.95;1.55;;;9.20;99.90;;;;;;5094607;28;20739;-76
2021/04/03 07:42:04;;;;;;;0.38;0.38;;;9.50;99.90;;;;;;5077224;28;20174;-74
2021/04/03 07:44:34;;;;;;;0.40;0.40;;;9.50;99.90;;;;;;5072499;28;20244;-74
2021/04/03 07:47:19;;;;;;;15.15;1.13;;;9.20;99.90;;;;;;5073662;28;20548;-74
2021/04/03 07:49:46;;;;;;;0.73;0.73;;;8.90;99.90;;;;;;5074302;28;20192;-74
2021/04/03 07:52:12;;;;;;;0.20;0.20;;;9.10;99.90;;;;;;5072742;28;20189;-74
2021/04/03 07:54:38;;;;;;;0.40;0.40;;;9.00;99.90;;;;;;5073998;28;20641;-74
2021/04/03 07:57:06;;;;;;;3.03;0.85;;;9.20;99.90;;;;;;5072643;28;20727;-74
2021/04/03 07:59:43;;;;;;;0.20;0.20;;;9.20;99.90;;;;;;5073829;28;20166;-74
2021/04/03 08:02:17;;;;;;;0.20;0.20;;;9.20;99.90;;;;;;5073977;28;20170;-77
2021/04/03 08:04:43;;;;;;;0.50;0.50;;;9.20;99.90;;;;;;5074598;28;20280;-76
2021/04/03 08:07:09;;;;;;;0.57;0.47;;;9.10;99.90;;;;;;5072404;28;20284;-75
2021/04/03 08:09:36;;;;;;;2.17;1.60;;;9.10;99.90;;;;;;5073907;28;20258;-76
2021/04/03 08:12:02;;;;;;;0.50;0.50;;;9.10;99.90;;;;;;5073848;28;20165;-76
2021/04/03 08:14:31;;;;;;;0.73;0.73;;;9.10;99.90;;;;;;5073780;28;20209;-79
2021/04/03 08:16:57;;;;;;;8.88;0.55;;;9.10;99.90;;;;;;5073188;28;20194;-76
2021/04/03 08:19:28;;;;;;;0.30;0.30;;;9.20;99.90;;;;;;5076939;28;20166;-75
2021/04/03 08:21:54;;;;;;;0.43;0.43;;;9.50;99.90;;;;;;5075440;28;20170;-76
2021/04/03 08:24:20;;;;;;;0.88;0.52;;;9.60;99.90;;;;;;5074247;28;20230;-76
2021/04/03 08:26:48;;;;;;;2.08;1.83;;;9.70;99.90;;;;;;5076586;28;20269;-75
2021/04/03 08:29:24;;;;;;;0.82;0.82;;;9.60;99.90;;;;;;5075119;28;20189;-76
2021/04/03 08:31:51;;;;;;;3.13;0.75;;;9.30;99.90;;;;;;5072331;28;20178;-77
2021/04/03 08:34:18;;;;;;;0.20;0.20;;;9.50;99.90;;;;;;5081016;28;20210;-77
2021/04/03 08:36:44;;;;;;;0.30;0.25;;;9.80;99.90;;;;;;5082149;28;20186;-77
2021/04/03 08:39:12;;;;;;;0.25;0.25;;;9.80;99.90;;;;;;5079652;28;20173;-76
2021/04/03 08:41:40;;;;;;;0.85;0.55;;;9.70;99.90;;;;;;5075526;28;20628;-76
2021/04/03 08:44:17;;;;;;;10.02;0.73;;;9.30;99.90;;;;;;5071774;28;20170;-76
2021/04/03 08:46:44;;;;;;;2.08;0.68;;;9.10;99.90;;;;;;5072103;28;20186;-76
2021/04/03 08:49:11;;;;;;;0.63;0.63;;;9.30;99.90;;;;;;5073493;28;20177;-77
2021/04/03 08:51:37;;;;;;;0.38;0.38;;;9.50;99.90;;;;;;5073991;28;20215;-77
2021/04/03 08:54:03;;;;;;;0.55;0.55;;;9.70;99.90;;;;;;5075873;28;20166;-76
2021/04/03 08:56:34;;;;;;;1.48;1.05;;;9.80;99.90;;;;;;5073983;28;20289;-76
2021/04/03 08:59:02;;;;;;;4.03;1.85;;;9.80;99.90;;;;;;5072633;28;20170;-76
2021/04/03 09:01:30;;;;;;;0.70;0.70;;;9.90;99.90;;;;;;5073045;28;20249;-76
2021/04/03 09:04:02;;;;;;;0.40;0.40;;;10.00;99.90;;;;;;5073047;28;20185;-76
2021/04/03 09:06:57;;;;;;;2.00;0.45;;;10.10;99.90;;;;;;5071944;28;20550;-76
2021/04/03 09:09:28;;;;;;;1.45;0.85;;;10.20;99.90;;;;;;5071656;28;20178;-76
2021/04/03 09:12:04;;;;;;;1.35;1.02;;;10.10;99.90;;;;;;5071456;28;20177;-77
2021/04/03 09:14:35;;;;;;;0.22;0.22;;;10.00;99.90;;;;;;5073264;28;20204;-76
2021/04/03 09:17:02;;;;;;;0.10;0.10;;;10.00;99.90;;;;;;5073254;28;20182;-77
2021/04/03 09:19:30;;;;;;;1.42;0.57;;;10.10;99.90;;;;;;5072731;28;20308;-79
2021/04/03 09:21:57;;;;;;;0.15;0.15;;;9.90;99.90;;;;;;5060678;28;20172;-79
2021/04/03 09:24:36;;;;;;;0.40;0.40;;;9.90;99.90;;;;;;5051129;28;20585;-78
2021/04/03 09:27:14;;;;;;;0.10;0.10;;;9.90;99.90;;;;;;5051588;28;20199;-77
2021/04/03 09:29:42;;;;;;;0.73;0.73;;;10.00;99.90;;;;;;5061938;28;20231;-77
2021/04/03 09:32:09;;;;;;;3.67;1.70;;;10.20;99.90;;;;;;5072344;28;20170;-78
2021/04/03 09:34:36;;;;;;;0.43;0.43;;;10.20;99.90;;;;;;5073016;28;20171;-77
2021/04/03 09:37:21;;;;;;;0.20;0.20;;;10.30;99.90;;;;;;5072525;28;20315;-78
2021/04/03 09:39:49;;;;;;;12.77;1.13;;;10.60;99.90;;;;;;5072604;28;20520;-79
2021/04/03 09:42:16;;;;;;;0.10;0.10;;;10.60;99.90;;;;;;5069496;28;20173;-76
2021/04/03 09:44:43;;;;;;;1.55;1.45;;;10.60;99.90;;;;;;5071549;28;20582;-77
2021/04/03 09:47:09;;;;;;;0.28;0.28;;;10.90;99.90;;;;;;5082495;28;20202;-80
2021/04/03 09:49:35;;;;;;;4.95;1.75;;;10.80;99.90;;;;;;5076458;28;20182;-76
2021/04/03 09:52:01;;;;;;;0.30;0.30;;;10.70;99.90;;;;;;5081721;28;20175;-76
2021/04/03 09:54:27;;;;;;;0.20;0.20;;;10.70;99.90;;;;;;5091384;28;20181;-77
2021/04/03 09:56:52;;;;;;;2.50;0.63;;;10.70;99.90;;;;;;5092169;28;20190;-77
2021/04/03 09:59:18;;;;;;;6.35;1.02;;;10.70;99.90;;;;;;5081536;28;20170;-78
2021/04/03 10:01:44;;;;;;;0.80;0.80;;;10.50;99.90;;;;;;5076930;28;20174;-77
2021/04/03 10:04:09;;;;;;;0.30;0.30;;;10.40;99.90;;;;;;5076636;28;20554;-79
2021/04/03 10:06:35;;;;;;;1.83;0.98;;;10.50;99.90;;;;;;5076335;28;20187;-78
2021/04/03 10:09:00;;;;;;;0.50;0.43;;;10.50;99.90;;;;;;5077018;28;20167;-78
2021/04/03 10:11:26;;;;;;;0.60;0.60;;;10.80;99.90;;;;;;5075560;28;20502;-78
2021/04/03 10:13:52;;;;;;;0.40;0.40;;;10.80;99.90;;;;;;5075305;28;20245;-78
2021/04/03 10:16:18;;;;;;;0.47;0.47;;;10.90;99.90;;;;;;5076041;28;20261;-79
2021/04/03 10:18:45;;;;;;;0.43;0.43;;;11.10;99.90;;;;;;5075979;28;20175;-77
2021/04/03 10:21:11;;;;;;;4.00;1.77;;;11.50;99.90;;;;;;5075584;28;20166;-78
2021/04/03 10:23:37;;;;;;;0.65;0.65;;;11.50;99.90;;;;;;5074328;28;20167;-76
2021/04/03 10:26:03;;;;;;;0.63;0.63;;;11.50;99.90;;;;;;5074084;28;20215;-75
2021/04/03 10:28:28;;;;;;;2.03;1.23;;;11.10;99.90;;;;;;5075457;28;20187;-75
2021/04/03 10:30:54;;;;;;;0.60;0.60;;;10.70;99.90;;;;;;5074848;28;20209;-76
2021/04/03 10:33:20;;;;;;;0.77;0.77;;;10.90;99.90;;;;;;5075592;28;20237;-76
2021/04/03 10:35:45;;;;;;;0.77;0.55;;;11.00;99.90;;;;;;5074366;28;20247;-79
2021/04/03 10:38:11;;;;;;;11.48;0.73;;;11.20;99.90;;;;;;5075567;28;20166;-74
2021/04/03 10:40:37;;;;;;;0.75;0.60;;;11.30;99.90;;;;;;5075093;28;20197;-77
2021/04/03 10:43:02;;;;;;;7.57;1.23;;;11.30;99.90;;;;;;5075541;28;20151;-76
2021/04/03 10:45:28;;;;;;;0.20;0.20;;;11.40;99.90;;;;;;5074000;28;20207;-74
2021/04/03 10:47:53;;;;;;;2.45;1.23;;;11.50;99.90;;;;;;5075320;28;20629;-75
2021/04/03 10:50:19;;;;;;;0.82;0.82;;;11.90;99.90;;;;;;5075337;28;20557;-74
2021/04/03 10:52:45;;;;;;;0.40;0.40;;;11.90;99.90;;;;;;5075399;28;20170;-74
2021/04/03 10:55:11;;;;;;;0.40;0.40;;;11.90;99.90;;;;;;5076658;28;20175;-74
2021/04/03 10:57:37;;;;;;;0.20;0.20;;;11.80;99.90;;;;;;5076539;28;20517;-75
2021/04/03 11:00:04;;;;;;;0.63;0.63;;;11.60;99.90;;;;;;5087424;28;20181;-75
2021/04/03 11:02:29;;;;;;;0.63;0.40;;;11.50;99.90;;;;;;5095728;28;20168;-77
2021/04/03 11:04:55;;;;;;;0.50;0.50;;;11.40;99.90;;;;;;5095454;28;20201;-75
2021/04/03 11:07:21;;;;;;;8.48;3.08;;;11.50;99.90;;;;;;5094864;28;20668;-74
2021/04/03 11:09:46;;;;;;;0.65;0.60;;;11.40;99.90;;;;;;5095674;28;20177;-75
2021/04/03 11:12:13;;;;;;;1.08;0.40;;;11.40;99.90;;;;;;5085840;28;20177;-77
2021/04/03 11:14:40;;;;;;;1.98;1.02;;;11.60;99.90;;;;;;5095101;28;20166;-77
2021/04/03 11:17:06;;;;;;;5.22;1.75;;;11.90;99.90;;;;;;5088210;28;20251;-75
2021/04/03 11:19:31;;;;;;;0.93;0.93;;;11.80;99.90;;;;;;5074521;28;20166;-74
2021/04/03 11:21:57;;;;;;;1.85;1.48;;;11.70;99.90;;;;;;5073197;28;20231;-76
2021/04/03 11:24:24;;;;;;;0.40;0.40;;;11.70;99.90;;;;;;5074472;28;20225;-75
2021/04/03 11:26:50;;;;;;;25.23;2.10;;;11.70;99.90;;;;;;5074465;28;20183;-75
2021/04/03 11:29:16;;;;;;;4.63;0.60;;;11.70;99.90;;;;;;5074067;28;20494;-75
2021/04/03 11:31:41;;;;;;;2.03;1.17;;;11.80;99.90;;;;;;5081955;28;20175;-76
2021/04/03 11:34:07;;;;;;;0.43;0.43;;;11.70;99.90;;;;;;5085845;28;20230;-75
2021/04/03 11:36:32;;;;;;;2.70;0.60;;;11.70;99.90;;;;;;5079724;28;20209;-74
2021/04/03 11:38:58;;;;;;;14.90;1.55;;;11.70;99.90;;;;;;5074580;28;20167;-76
2021/04/03 11:41:23;;;;;;;2.55;0.63;;;11.60;99.90;;;;;;5074530;28;20329;-76
2021/04/03 11:43:50;;;;;;;24.13;1.20;;;11.50;99.90;;;;;;5075899;28;20216;-75
2021/04/03 11:46:15;;;;;;;5.55;0.90;;;11.50;99.90;;;;;;5058533;28;20226;-75
2021/04/03 11:48:41;;;;;;;0.30;0.30;;;11.60;99.90;;;;;;5076986;28;20637;-76
2021/04/03 11:51:07;;;;;;;0.85;0.85;;;11.60;99.90;;;;;;5076049;28;20638;-74
2021/04/03 11:53:33;;;;;;;0.57;0.57;;;11.70;99.90;;;;;;5078171;28;20203;-76
2021/04/03 11:55:58;;;;;;;0.30;0.30;;;11.50;99.90;;;;;;5077035;28;20653;-74
2021/04/03 11:58:24;;;;;;;0.52;0.52;;;11.50;99.90;;;;;;5074588;28;20163;-75
2021/04/03 12:00:50;;;;;;;0.38;0.38;;;11.30;99.90;;;;;;5073926;28;20173;-75
2021/04/03 12:03:15;;;;;;;0.30;0.30;;;11.30;99.90;;;;;;5074370;28;20166;-74
2021/04/03 12:05:41;;;;;;;0.75;0.45;;;11.40;99.90;;;;;;5073546;28;20210;-78
2021/04/03 12:08:07;;;;;;;0.32;0.32;;;11.70;99.90;;;;;;5073877;28;20170;-75
2021/04/03 12:10:33;;;;;;;1.02;1.02;;;12.10;99.90;;;;;;5073516;28;20621;-74
2021/04/03 12:12:58;;;;;;;4.95;0.93;;;12.30;99.90;;;;;;5073538;28;20173;-74
2021/04/03 12:15:25;;;;;;;2.92;1.95;;;12.50;99.90;;;;;;5073662;28;20186;-76
2021/04/03 12:17:51;;;;;;;7.68;1.58;;;12.50;99.90;;;;;;5073808;28;20190;-75
2021/04/03 12:20:17;;;;;;;0.45;0.45;;;12.90;99.90;;;;;;5072615;28;20158;-76
2021/04/03 12:22:44;;;;;;;1.90;1.08;;;12.50;99.90;;;;;;5073855;28;20192;-75
2021/04/03 12:25:11;;;;;;;1.20;1.08;;;12.30;99.90;;;;;;5073404;28;20396;-74
2021/04/03 12:27:36;;;;;;;0.40;0.40;;;12.10;99.90;;;;;;5073484;28;20165;-76
2021/04/03 12:30:03;;;;;;;0.93;0.93;;;12.20;99.90;;;;;;5073622;28;20242;-75
2021/04/03 12:32:30;;;;;;;0.17;0.17;;;12.40;99.90;;;;;;5073429;28;20225;-75
2021/04/03 12:34:55;;;;;;;0.32;0.32;;;12.30;99.90;;;;;;5073336;28;20241;-75
2021/04/03 12:37:21;;;;;;;0.38;0.38;;;12.00;99.90;;;;;;5073071;28;20620;-75
2021/04/03 12:39:47;;;;;;;0.70;0.70;;;11.90;99.90;;;;;;5073698;28;20246;-76
2021/04/03 12:42:12;;;;;;;0.50;0.50;;;12.00;99.90;;;;;;5073519;28;20159;-76
2021/04/03 12:44:38;;;;;;;0.47;0.47;;;12.30;99.90;;;;;;5073142;28;20233;-75
2021/04/03 12:47:05;;;;;;;1.85;0.77;;;12.50;99.90;;;;;;5073158;28;20517;-76
2021/04/03 12:49:31;;;;;;;0.85;0.85;;;12.60;99.90;;;;;;5073162;28;20653;-75
2021/04/03 12:51:57;;;;;;;0.20;0.20;;;12.60;99.90;;;;;;5073014;28;20178;-76
2021/04/03 12:54:22;;;;;;;0.45;0.38;;;12.50;99.90;;;;;;5073311;28;20175;-74
2021/04/03 12:56:49;;;;;;;0.40;0.40;;;12.40;99.90;;;;;;5065745;28;20195;-75